메인 페이지
METAR-TAF:

METAR-TAF

공항 :

석유플랫폼 Norsk Hydro

Oseberg, 노르웨이

위도: 60-29-29N, 경도: 2-49-32E, 고도: 158m

현재 날씨관측

예보는 18분 전, 14:50시(UTC)에 발표되었습니다.
서남서16kt
온도 13°C
습도 77%
기압 1016 hPa
시정 10km 이상
고도 1000ft 상공 구름 조금
고도 5500ft 상공 구름 많음
고도 6000ft 상공 구름 많음

METAR: ENOA 201450Z 25016KT 9999 FEW010 BKN055 BKN060 13/09 Q1016 W///S5

시각: 17:08 (15:08 UTC)

예보

예보는 1 시간 8분 전, 14:00시(UTC)에 발표되었습니다.
예보 대상 시간: 20일 15시부터 21일 15시까지 (UTC)
서남서22kt
시정 10km 이상
고도 2000ft 상공 구름 조금
확률 30% :
일시적
20일 15시부터 21일 09시까지 (UTC)
고도 1400ft 상공 구름 많음
전환 중
21일 01시부터 21일 03시까지 (UTC)
20kt
일시적
21일 09시부터 21일 12시까지 (UTC)
고도 800ft 상공 구름 많음
전환 중
21일 07시부터 21일 09시까지 (UTC)
30kt

TAF: ENOA 201400Z 2015/2115 25022KT 9999 FEW020 PROB30 TEMPO 2015/2109 BKN014 BECMG 2101/2103 19020KT TEMPO 2109/2112 BKN008 BECMG 2107/2109 17030KT

4,000개 이상의 공항 관측 자료 및 예보 (METAR 및 TAF 보고).

지도상에서 검색 가능한 기상관측소가 노란 점과 빨간 점으로 표시되어 있습니다.

기상관측소 명을 보려면 표시 위로 마우스를 이동하세요.

날씨 관측과 예보를 보려면 클릭하세요.

지도 변경 : 확대하려면 엑스 표시가 있는 녹색 버튼, 축소하려면 빼기 표시가 있는 녹색 버튼, 다음 페이지의 지도를 보려면 녹색 화살표를 클릭하세요.


METAR-TAF: